If you wish to contribute or participate in the discussions about articles you are invited to join SKYbrary as a registered user

 Actions

Rota Naval Station Airport

From SKYbrary Wiki

LERT
Airport
ICAO: LERT
Summary
Name Rota Naval Station Airport
Region Europe
Territory Spain ES.gif
Location , Andalucia
Serving Rota
Elevation 26.213 m
86 ft
86 ft26.213 m
Type medium airport
Coordinates 36° 38' 42.76" N, 6° 20' 58.05" W
Runways
Designator Length Width Surface ROPS
10/28 3689 m12,103.018 ft
61 m200.131 ft
ASP yes/yes


METAR
Observation LERT 232300Z 29009KT CAVOK 17/11 Q1017 NOSIG
Station Rota
Date/Time 23 October 2019 23:00:00
Wind direction 290°
Wind speed 09 kts
Lowest cloud amount clouds and visibility OK
Temperature 17°C
Dew point 11°C
Humidity 67%
QNH 1017 hPa
Weather condition n/a